AFR47 LFPG-FIMP
Flight info
| Callsign | AFR47 |
|---|---|
| Flight time | N/A |
| Altitude | 33000 |
| Route | OKASI DCT OKEKO DCT MOU DCT MADIV DCT MOKIP DCT TUFTA DCT KOGAS DCT MEDAM DCT NITAM DCT MOGBO DCT TINKU DCT EKMIL DCT LUXIL DCT LATAN DCT SALUN N705 MMA/N0486F350 N705 BOPIX N710 TAKRI P751 LXR M999 JDW G650 RASKA/N0494F360 G650 ASM/N0497F350 UR780 SETIT DCT XADOX DCT DWA N304 GIBAX/N0492F370 N304 AVUSI UN304 APKAK/N0494F360 UN304 ALRUS/N0488F380 UN304 DENLI/N0492F370 UN304 MAEVA UL433 APKOT DCT TIBAG TIBAG2E |
| Aircraft | B77W/H-SDE1E2E3FGHIJ2J3J4J5M1RWXY/LB1D1 |
Departure
| Time | N/A |
|---|---|
| Airport | Charles de Gaulle International Airport (LFPG) |
Arrival
| Time | 2026-05-06 06:38 |
|---|---|
| Airport | Sir Seewoosagur Ramgoolam International Airport (FIMP) |
| Time | Latitude | Longitude | Altitude | Speed | Heading |
|---|---|---|---|---|---|
| 2026-05-06 04:10 | -3.89768 | 47.82719 | 36910 ft | 493 kts | 155° |
| 2026-05-06 04:10 | -3.96081 | 47.85426 | 36910 ft | 494 kts | 155° |
| 2026-05-06 04:11 | -4.02456 | 47.88160 | 36910 ft | 494 kts | 155° |
| 2026-05-06 04:11 | -4.08833 | 47.90894 | 36910 ft | 494 kts | 155° |
| 2026-05-06 04:12 | -4.15203 | 47.93627 | 36909 ft | 495 kts | 155° |
| 2026-05-06 04:12 | -4.21577 | 47.96361 | 36909 ft | 494 kts | 155° |
| 2026-05-06 04:13 | -4.27940 | 47.99087 | 36909 ft | 493 kts | 155° |
| 2026-05-06 04:13 | -4.34300 | 48.01811 | 36911 ft | 494 kts | 155° |
| 2026-05-06 04:14 | -4.40670 | 48.04539 | 36907 ft | 495 kts | 155° |
| 2026-05-06 04:14 | -4.47051 | 48.07274 | 36913 ft | 495 kts | 155° |
| 2026-05-06 04:15 | -4.53415 | 48.10001 | 36919 ft | 495 kts | 155° |
| 2026-05-06 04:15 | -4.59831 | 48.12751 | 36925 ft | 495 kts | 155° |
| 2026-05-06 04:16 | -4.66212 | 48.15487 | 36927 ft | 494 kts | 155° |
| 2026-05-06 04:16 | -4.72558 | 48.18209 | 36930 ft | 495 kts | 155° |
| 2026-05-06 04:17 | -4.78991 | 48.20968 | 36929 ft | 495 kts | 155° |
| 2026-05-06 04:17 | -4.85388 | 48.23712 | 36929 ft | 495 kts | 155° |
| 2026-05-06 04:18 | -4.91824 | 48.26473 | 36931 ft | 495 kts | 155° |
| 2026-05-06 04:18 | -4.98203 | 48.29211 | 36923 ft | 496 kts | 155° |
| 2026-05-06 04:19 | -5.04616 | 48.31964 | 36919 ft | 496 kts | 155° |
| 2026-05-06 04:19 | -5.11040 | 48.34722 | 36914 ft | 496 kts | 155° |
| 2026-05-06 04:20 | -5.17416 | 48.37460 | 36909 ft | 496 kts | 155° |
| 2026-05-06 04:20 | -5.23821 | 48.40212 | 36913 ft | 496 kts | 155° |
| 2026-05-06 04:21 | -5.30246 | 48.42972 | 36903 ft | 495 kts | 155° |
| 2026-05-06 04:21 | -5.36691 | 48.45742 | 36903 ft | 495 kts | 155° |
| 2026-05-06 04:22 | -5.43043 | 48.48472 | 36907 ft | 495 kts | 155° |
| 2026-05-06 04:23 | -5.52652 | 48.52604 | 36907 ft | 496 kts | 155° |
| 2026-05-06 04:23 | -5.59043 | 48.55352 | 36907 ft | 496 kts | 155° |
| 2026-05-06 04:24 | -5.65423 | 48.58097 | 36909 ft | 496 kts | 155° |
| 2026-05-06 04:24 | -5.71846 | 48.60861 | 36907 ft | 497 kts | 155° |
| 2026-05-06 04:25 | -5.78265 | 48.63623 | 36907 ft | 497 kts | 155° |
| 2026-05-06 04:25 | -5.84690 | 48.66389 | 36915 ft | 497 kts | 155° |
| 2026-05-06 04:26 | -5.91081 | 48.69141 | 36913 ft | 496 kts | 155° |
| 2026-05-06 04:26 | -5.97498 | 48.71905 | 36913 ft | 497 kts | 155° |
| 2026-05-06 04:27 | -6.03919 | 48.74672 | 36916 ft | 498 kts | 155° |
| 2026-05-06 04:27 | -6.10374 | 48.77453 | 36912 ft | 498 kts | 155° |
| 2026-05-06 04:28 | -6.16752 | 48.80203 | 36912 ft | 497 kts | 155° |
| 2026-05-06 04:28 | -6.23187 | 48.82978 | 36913 ft | 498 kts | 155° |
| 2026-05-06 04:29 | -6.29610 | 48.85748 | 36917 ft | 498 kts | 155° |
| 2026-05-06 04:29 | -6.36006 | 48.88507 | 36916 ft | 498 kts | 155° |
| 2026-05-06 04:30 | -6.42432 | 48.91280 | 36918 ft | 498 kts | 155° |
| 2026-05-06 04:30 | -6.48862 | 48.94055 | 36920 ft | 499 kts | 155° |
| 2026-05-06 04:31 | -6.55333 | 48.96849 | 36927 ft | 499 kts | 155° |
| 2026-05-06 04:31 | -6.61765 | 48.99627 | 36929 ft | 498 kts | 155° |
| 2026-05-06 04:32 | -6.68232 | 49.02421 | 36930 ft | 499 kts | 155° |
| 2026-05-06 04:32 | -6.74657 | 49.05197 | 36929 ft | 499 kts | 155° |
| 2026-05-06 04:33 | -6.81126 | 49.07994 | 36931 ft | 499 kts | 155° |
| 2026-05-06 04:33 | -6.87567 | 49.10778 | 36932 ft | 498 kts | 155° |
| 2026-05-06 04:34 | -6.94001 | 49.13561 | 36931 ft | 499 kts | 155° |
| 2026-05-06 04:34 | -7.00437 | 49.16346 | 36927 ft | 499 kts | 155° |
| 2026-05-06 04:35 | -7.06884 | 49.19136 | 36931 ft | 499 kts | 155° |
| 2026-05-06 04:35 | -7.13353 | 49.21936 | 36927 ft | 499 kts | 155° |
| 2026-05-06 04:36 | -7.19777 | 49.24717 | 36928 ft | 499 kts | 155° |
| 2026-05-06 04:36 | -7.26228 | 49.27511 | 36929 ft | 499 kts | 155° |
| 2026-05-06 04:37 | -7.32713 | 49.30321 | 36929 ft | 500 kts | 155° |
| 2026-05-06 04:37 | -7.39175 | 49.33122 | 36929 ft | 500 kts | 155° |
| 2026-05-06 04:38 | -7.45626 | 49.35918 | 36928 ft | 500 kts | 155° |
| 2026-05-06 04:38 | -7.52079 | 49.38717 | 36928 ft | 499 kts | 156° |
| 2026-05-06 04:39 | -7.58522 | 49.41512 | 36929 ft | 500 kts | 156° |
| 2026-05-06 04:39 | -7.64961 | 49.44306 | 36931 ft | 500 kts | 156° |
| 2026-05-06 04:40 | -7.71446 | 49.47121 | 36935 ft | 499 kts | 156° |
| 2026-05-06 04:40 | -7.77888 | 49.49918 | 36940 ft | 499 kts | 156° |
| 2026-05-06 04:41 | -7.84310 | 49.52708 | 36949 ft | 498 kts | 156° |
| 2026-05-06 04:41 | -7.90745 | 49.55504 | 36947 ft | 499 kts | 156° |
| 2026-05-06 04:42 | -7.97211 | 49.58315 | 36948 ft | 499 kts | 156° |
| 2026-05-06 04:42 | -8.03647 | 49.61114 | 36950 ft | 499 kts | 156° |
| 2026-05-06 04:43 | -8.10110 | 49.63925 | 36951 ft | 499 kts | 156° |
| 2026-05-06 04:43 | -8.16558 | 49.66731 | 36949 ft | 500 kts | 156° |
| 2026-05-06 04:44 | -8.23018 | 49.69543 | 36950 ft | 500 kts | 156° |
| 2026-05-06 04:44 | -8.29448 | 49.72343 | 36950 ft | 500 kts | 156° |
| 2026-05-06 04:45 | -8.35920 | 49.75162 | 36950 ft | 501 kts | 156° |
| 2026-05-06 04:45 | -8.42448 | 49.78006 | 36950 ft | 501 kts | 156° |
| 2026-05-06 04:46 | -8.48914 | 49.80825 | 36951 ft | 501 kts | 156° |
| 2026-05-06 04:46 | -8.55387 | 49.83648 | 36950 ft | 502 kts | 156° |
| 2026-05-06 04:47 | -8.61859 | 49.86471 | 36951 ft | 502 kts | 156° |
| 2026-05-06 04:47 | -8.68333 | 49.89297 | 36950 ft | 501 kts | 156° |
| 2026-05-06 04:48 | -8.74800 | 49.92120 | 36950 ft | 500 kts | 156° |
| 2026-05-06 04:48 | -8.81264 | 49.94943 | 36950 ft | 500 kts | 156° |
| 2026-05-06 04:49 | -8.87727 | 49.97767 | 36950 ft | 501 kts | 157° |
| 2026-05-06 04:49 | -8.94166 | 50.00581 | 36951 ft | 501 kts | 156° |
| 2026-05-06 04:50 | -9.00650 | 50.03416 | 36953 ft | 502 kts | 156° |
| 2026-05-06 04:50 | -9.07125 | 50.06249 | 36952 ft | 501 kts | 156° |
| 2026-05-06 04:51 | -9.13609 | 50.09085 | 36949 ft | 500 kts | 156° |
| 2026-05-06 04:51 | -9.20065 | 50.11912 | 36953 ft | 501 kts | 157° |
| 2026-05-06 04:52 | -9.26498 | 50.14729 | 36952 ft | 502 kts | 157° |
| 2026-05-06 04:52 | -9.32975 | 50.17567 | 36956 ft | 501 kts | 157° |
| 2026-05-06 04:53 | -9.39492 | 50.20423 | 36958 ft | 502 kts | 157° |
| 2026-05-06 04:53 | -9.45952 | 50.23255 | 36958 ft | 501 kts | 157° |
| 2026-05-06 04:54 | -9.52437 | 50.26100 | 36960 ft | 502 kts | 157° |
| 2026-05-06 04:54 | -9.58905 | 50.28938 | 36966 ft | 502 kts | 157° |
| 2026-05-06 04:55 | -9.65362 | 50.31773 | 36970 ft | 502 kts | 157° |
| 2026-05-06 04:55 | -9.71875 | 50.34634 | 36973 ft | 503 kts | 157° |
| 2026-05-06 04:56 | -9.78328 | 50.37469 | 36974 ft | 501 kts | 157° |
| 2026-05-06 04:56 | -9.84813 | 50.40319 | 36975 ft | 502 kts | 157° |
| 2026-05-06 04:57 | -9.91287 | 50.43167 | 36972 ft | 502 kts | 157° |
| 2026-05-06 04:57 | -9.97757 | 50.46013 | 36974 ft | 504 kts | 157° |
| 2026-05-06 04:58 | -10.04246 | 50.48868 | 36973 ft | 503 kts | 158° |
| 2026-05-06 04:58 | -10.10726 | 50.51719 | 36974 ft | 502 kts | 158° |
| 2026-05-06 04:59 | -10.17221 | 50.54578 | 36972 ft | 502 kts | 158° |
| 2026-05-06 04:59 | -10.23696 | 50.57429 | 36973 ft | 502 kts | 158° |
| 2026-05-06 05:00 | -10.30156 | 50.60276 | 36972 ft | 501 kts | 158° |
| 2026-05-06 05:00 | -10.36639 | 50.63134 | 36974 ft | 502 kts | 158° |
| 2026-05-06 05:01 | -10.43093 | 50.65979 | 36968 ft | 503 kts | 158° |
| 2026-05-06 05:01 | -10.49550 | 50.68829 | 36969 ft | 501 kts | 158° |
| 2026-05-06 05:02 | -10.56021 | 50.71684 | 36969 ft | 500 kts | 158° |
| 2026-05-06 05:02 | -10.62474 | 50.74534 | 36970 ft | 500 kts | 158° |
| 2026-05-06 05:03 | -10.68961 | 50.77400 | 36968 ft | 500 kts | 158° |
| 2026-05-06 05:03 | -10.75439 | 50.80263 | 36965 ft | 501 kts | 158° |
| 2026-05-06 05:04 | -10.81922 | 50.83130 | 36973 ft | 500 kts | 158° |
| 2026-05-06 05:04 | -10.88383 | 50.85988 | 36975 ft | 499 kts | 158° |
| 2026-05-06 05:05 | -10.94810 | 50.88833 | 36969 ft | 498 kts | 158° |
| 2026-05-06 05:05 | -11.01218 | 50.91671 | 36970 ft | 498 kts | 158° |
| 2026-05-06 05:06 | -11.07706 | 50.94545 | 36968 ft | 498 kts | 158° |
| 2026-05-06 05:06 | -11.14085 | 50.97373 | 36962 ft | 499 kts | 158° |
| 2026-05-06 05:07 | -11.20523 | 51.00228 | 36956 ft | 498 kts | 158° |
| 2026-05-06 05:07 | -11.26919 | 51.03066 | 36955 ft | 498 kts | 158° |
| 2026-05-06 05:08 | -11.33342 | 51.05917 | 36961 ft | 499 kts | 158° |
| 2026-05-06 05:08 | -11.39786 | 51.08779 | 36956 ft | 499 kts | 158° |
| 2026-05-06 05:09 | -11.46211 | 51.11634 | 36958 ft | 498 kts | 158° |
| 2026-05-06 05:09 | -11.52609 | 51.14478 | 36966 ft | 499 kts | 158° |
| 2026-05-06 05:10 | -11.59058 | 51.17347 | 36970 ft | 499 kts | 158° |
| 2026-05-06 05:10 | -11.65513 | 51.20219 | 36977 ft | 500 kts | 158° |
| 2026-05-06 05:11 | -11.71948 | 51.23084 | 36975 ft | 499 kts | 158° |
| 2026-05-06 05:11 | -11.78370 | 51.25945 | 36973 ft | 499 kts | 159° |
| 2026-05-06 05:12 | -11.84824 | 51.28822 | 36972 ft | 499 kts | 159° |
| 2026-05-06 05:12 | -11.91229 | 51.31678 | 36972 ft | 500 kts | 159° |
| 2026-05-06 05:13 | -11.97700 | 51.34565 | 36973 ft | 500 kts | 159° |
| 2026-05-06 05:13 | -12.04100 | 51.37422 | 36977 ft | 499 kts | 159° |
| 2026-05-06 05:14 | -12.10556 | 51.40305 | 36977 ft | 499 kts | 159° |
| 2026-05-06 05:14 | -12.16997 | 51.43184 | 36979 ft | 499 kts | 159° |
| 2026-05-06 05:15 | -12.23383 | 51.46040 | 36976 ft | 499 kts | 159° |
| 2026-05-06 05:15 | -12.29828 | 51.48924 | 36980 ft | 499 kts | 159° |
| 2026-05-06 05:16 | -12.36253 | 51.51801 | 36980 ft | 499 kts | 159° |
| 2026-05-06 05:16 | -12.42648 | 51.54665 | 36981 ft | 498 kts | 159° |
| 2026-05-06 05:17 | -12.49082 | 51.57549 | 36979 ft | 498 kts | 159° |
| 2026-05-06 05:17 | -12.55494 | 51.60424 | 36980 ft | 499 kts | 159° |
| 2026-05-06 05:18 | -12.61911 | 51.63303 | 36980 ft | 498 kts | 159° |
| 2026-05-06 05:18 | -12.68323 | 51.66181 | 36975 ft | 499 kts | 159° |
| 2026-05-06 05:19 | -12.74776 | 51.69080 | 36972 ft | 499 kts | 159° |
| 2026-05-06 05:19 | -12.81160 | 51.71949 | 36977 ft | 498 kts | 159° |
| 2026-05-06 05:20 | -12.87567 | 51.74830 | 36978 ft | 498 kts | 159° |
| 2026-05-06 05:20 | -12.93984 | 51.77717 | 36976 ft | 498 kts | 159° |
| 2026-05-06 05:21 | -13.00383 | 51.80597 | 36972 ft | 498 kts | 159° |
| 2026-05-06 05:21 | -13.06804 | 51.83489 | 36973 ft | 498 kts | 159° |
| 2026-05-06 05:22 | -13.13251 | 51.86395 | 36973 ft | 498 kts | 159° |
| 2026-05-06 05:22 | -13.19663 | 51.89287 | 36972 ft | 498 kts | 159° |
| 2026-05-06 05:23 | -13.26077 | 51.92181 | 36972 ft | 498 kts | 159° |
| 2026-05-06 05:23 | -13.35703 | 51.96527 | 36972 ft | 499 kts | 159° |
| 2026-05-06 05:24 | -13.42135 | 51.99433 | 36971 ft | 500 kts | 159° |
| 2026-05-06 05:24 | -13.48592 | 52.02352 | 36972 ft | 500 kts | 159° |
| 2026-05-06 05:25 | -13.55047 | 52.05273 | 36972 ft | 499 kts | 159° |
| 2026-05-06 05:25 | -13.61465 | 52.08178 | 36972 ft | 500 kts | 159° |
| 2026-05-06 05:26 | -13.67896 | 52.11091 | 36979 ft | 499 kts | 159° |
| 2026-05-06 05:26 | -13.74313 | 52.13998 | 36986 ft | 500 kts | 159° |
| 2026-05-06 05:27 | -13.80720 | 52.16904 | 36986 ft | 500 kts | 159° |
| 2026-05-06 05:27 | -13.87150 | 52.19821 | 36992 ft | 499 kts | 159° |
| 2026-05-06 05:28 | -13.93565 | 52.22733 | 36992 ft | 500 kts | 159° |
| 2026-05-06 05:28 | -13.99981 | 52.25648 | 36993 ft | 500 kts | 159° |
| 2026-05-06 05:29 | -14.06448 | 52.28588 | 36991 ft | 499 kts | 159° |
| 2026-05-06 05:29 | -14.12846 | 52.31498 | 36995 ft | 498 kts | 159° |
| 2026-05-06 05:30 | -14.19266 | 52.34420 | 36996 ft | 499 kts | 159° |
| 2026-05-06 05:30 | -14.25672 | 52.37338 | 36997 ft | 499 kts | 159° |
| 2026-05-06 05:31 | -14.32095 | 52.40264 | 36996 ft | 499 kts | 159° |
| 2026-05-06 05:31 | -14.38501 | 52.43185 | 36993 ft | 498 kts | 159° |
| 2026-05-06 05:32 | -14.44869 | 52.46091 | 36994 ft | 497 kts | 159° |
| 2026-05-06 05:32 | -14.51260 | 52.49009 | 36994 ft | 497 kts | 159° |
| 2026-05-06 05:33 | -14.57625 | 52.51917 | 36997 ft | 497 kts | 159° |
| 2026-05-06 05:33 | -14.64018 | 52.54839 | 36996 ft | 497 kts | 159° |
| 2026-05-06 05:34 | -14.70400 | 52.57758 | 36996 ft | 497 kts | 159° |
| 2026-05-06 05:34 | -14.76817 | 52.60695 | 36995 ft | 497 kts | 159° |
| 2026-05-06 05:35 | -14.83189 | 52.63614 | 36996 ft | 495 kts | 159° |
| 2026-05-06 05:35 | -14.89552 | 52.66530 | 36991 ft | 495 kts | 159° |
| 2026-05-06 05:36 | -14.95871 | 52.69428 | 36989 ft | 495 kts | 159° |
| 2026-05-06 05:36 | -15.02251 | 52.72356 | 36989 ft | 495 kts | 159° |
| 2026-05-06 05:37 | -15.08587 | 52.75265 | 36992 ft | 495 kts | 159° |
| 2026-05-06 05:37 | -15.14960 | 52.78194 | 36994 ft | 495 kts | 159° |
| 2026-05-06 05:38 | -15.21299 | 52.81108 | 36993 ft | 495 kts | 159° |
| 2026-05-06 05:38 | -15.27647 | 52.84029 | 36993 ft | 495 kts | 159° |
| 2026-05-06 05:39 | -15.33997 | 52.86953 | 36991 ft | 493 kts | 159° |
| 2026-05-06 05:39 | -15.40322 | 52.89867 | 36991 ft | 494 kts | 159° |
| 2026-05-06 05:40 | -15.46653 | 52.92786 | 36990 ft | 494 kts | 158° |
| 2026-05-06 05:40 | -15.52983 | 52.95706 | 36990 ft | 494 kts | 158° |
| 2026-05-06 05:41 | -15.59321 | 52.98632 | 36992 ft | 493 kts | 158° |
| 2026-05-06 05:41 | -15.65654 | 53.01558 | 36989 ft | 493 kts | 158° |
| 2026-05-06 05:42 | -15.71980 | 53.04482 | 36991 ft | 493 kts | 158° |
| 2026-05-06 05:42 | -15.78317 | 53.07414 | 36989 ft | 492 kts | 158° |
| 2026-05-06 05:43 | -15.84660 | 53.10350 | 36992 ft | 493 kts | 158° |
| 2026-05-06 05:43 | -15.90997 | 53.13285 | 36990 ft | 493 kts | 158° |
| 2026-05-06 05:44 | -15.97350 | 53.16230 | 36990 ft | 494 kts | 158° |
| 2026-05-06 05:44 | -16.03668 | 53.19161 | 36990 ft | 494 kts | 158° |
| 2026-05-06 05:45 | -16.09996 | 53.22099 | 36994 ft | 492 kts | 158° |
| 2026-05-06 05:45 | -16.16291 | 53.25024 | 37007 ft | 491 kts | 158° |
| 2026-05-06 05:46 | -16.22559 | 53.27937 | 37015 ft | 491 kts | 158° |
| 2026-05-06 05:46 | -16.28874 | 53.30875 | 37021 ft | 491 kts | 158° |
| 2026-05-06 05:47 | -16.35191 | 53.33815 | 37021 ft | 491 kts | 158° |
| 2026-05-06 05:47 | -16.41063 | 53.37588 | 37021 ft | 497 kts | 141° |
| 2026-05-06 05:48 | -16.46079 | 53.42604 | 37025 ft | 498 kts | 137° |
| 2026-05-06 05:48 | -16.51045 | 53.47732 | 37025 ft | 497 kts | 137° |
| 2026-05-06 05:49 | -16.55987 | 53.52844 | 37027 ft | 496 kts | 137° |
| 2026-05-06 05:49 | -16.60941 | 53.57976 | 37027 ft | 496 kts | 137° |
| 2026-05-06 05:50 | -16.65866 | 53.63084 | 37028 ft | 496 kts | 137° |
| 2026-05-06 05:50 | -16.70696 | 53.68097 | 37026 ft | 496 kts | 137° |
| 2026-05-06 05:51 | -16.75638 | 53.73231 | 37025 ft | 497 kts | 137° |
| 2026-05-06 05:51 | -16.80587 | 53.78377 | 37028 ft | 496 kts | 137° |
| 2026-05-06 05:52 | -16.85502 | 53.83492 | 37030 ft | 496 kts | 137° |
| 2026-05-06 05:52 | -16.90431 | 53.88625 | 37030 ft | 496 kts | 137° |
| 2026-05-06 05:53 | -16.95378 | 53.93779 | 37030 ft | 496 kts | 137° |
| 2026-05-06 05:53 | -17.00297 | 53.98910 | 37024 ft | 496 kts | 137° |
| 2026-05-06 05:54 | -17.05226 | 54.04056 | 37017 ft | 495 kts | 137° |
| 2026-05-06 05:54 | -17.10121 | 54.09169 | 37010 ft | 495 kts | 137° |
| 2026-05-06 05:55 | -17.15013 | 54.14285 | 37022 ft | 494 kts | 137° |
| 2026-05-06 05:55 | -17.19915 | 54.19414 | 37019 ft | 494 kts | 137° |
| 2026-05-06 05:56 | -17.24805 | 54.24534 | 37018 ft | 493 kts | 137° |
| 2026-05-06 05:56 | -17.29699 | 54.29663 | 37022 ft | 493 kts | 137° |
| 2026-05-06 05:57 | -17.34560 | 54.34761 | 37021 ft | 492 kts | 137° |
| 2026-05-06 05:57 | -17.39440 | 54.39883 | 37025 ft | 492 kts | 137° |
| 2026-05-06 05:58 | -17.44318 | 54.45008 | 37019 ft | 493 kts | 137° |
| 2026-05-06 05:58 | -17.49208 | 54.50149 | 37023 ft | 492 kts | 137° |
| 2026-05-06 05:59 | -17.54074 | 54.55268 | 37024 ft | 491 kts | 137° |
| 2026-05-06 05:59 | -17.58945 | 54.60399 | 37025 ft | 492 kts | 137° |
| 2026-05-06 06:00 | -17.63821 | 54.65538 | 37024 ft | 492 kts | 136° |
| 2026-05-06 06:00 | -17.68689 | 54.70672 | 37025 ft | 491 kts | 136° |
| 2026-05-06 06:01 | -17.73513 | 54.75764 | 37024 ft | 491 kts | 136° |
| 2026-05-06 06:01 | -17.78386 | 54.80912 | 37025 ft | 491 kts | 136° |
| 2026-05-06 06:02 | -17.83244 | 54.86049 | 37025 ft | 492 kts | 136° |
| 2026-05-06 06:02 | -17.88083 | 54.91170 | 37031 ft | 491 kts | 136° |
| 2026-05-06 06:03 | -17.92950 | 54.96324 | 37030 ft | 492 kts | 136° |
| 2026-05-06 06:03 | -17.97826 | 55.01492 | 37037 ft | 492 kts | 136° |
| 2026-05-06 06:04 | -18.02671 | 55.06633 | 37034 ft | 491 kts | 136° |
| 2026-05-06 06:04 | -18.07558 | 55.11821 | 37031 ft | 492 kts | 136° |
| 2026-05-06 06:05 | -18.12373 | 55.16937 | 37041 ft | 492 kts | 136° |
| 2026-05-06 06:05 | -18.17250 | 55.22124 | 37043 ft | 491 kts | 136° |
| 2026-05-06 06:06 | -18.22075 | 55.27259 | 37043 ft | 492 kts | 136° |
| 2026-05-06 06:06 | -18.26942 | 55.32445 | 37039 ft | 490 kts | 136° |
| 2026-05-06 06:07 | -18.31767 | 55.37589 | 37041 ft | 490 kts | 136° |
| 2026-05-06 06:07 | -18.36605 | 55.42753 | 37041 ft | 490 kts | 136° |
| 2026-05-06 06:08 | -18.41425 | 55.47904 | 37042 ft | 491 kts | 136° |
| 2026-05-06 06:08 | -18.46261 | 55.53077 | 37041 ft | 490 kts | 136° |
| 2026-05-06 06:09 | -18.51128 | 55.58160 | 37044 ft | 490 kts | 138° |
| 2026-05-06 06:09 | -18.56148 | 55.63101 | 37042 ft | 490 kts | 138° |
| 2026-05-06 06:10 | -18.61171 | 55.68061 | 37043 ft | 489 kts | 138° |
| 2026-05-06 06:10 | -18.66135 | 55.72979 | 37040 ft | 487 kts | 138° |
| 2026-05-06 06:11 | -18.71115 | 55.77921 | 37033 ft | 487 kts | 138° |
| 2026-05-06 06:11 | -18.76085 | 55.82861 | 37036 ft | 487 kts | 137° |
| 2026-05-06 06:12 | -18.81036 | 55.87788 | 36989 ft | 480 kts | 137° |
| 2026-05-06 06:12 | -18.83464 | 55.90205 | 36831 ft | 479 kts | 137° |
| 2026-05-06 06:12 | -18.85923 | 55.92655 | 36583 ft | 479 kts | 137° |
| 2026-05-06 06:13 | -18.88364 | 55.95088 | 36297 ft | 480 kts | 137° |
| 2026-05-06 06:13 | -18.90823 | 55.97541 | 36022 ft | 481 kts | 137° |
| 2026-05-06 06:13 | -18.93267 | 55.99979 | 35781 ft | 482 kts | 137° |
| 2026-05-06 06:13 | -18.95733 | 56.02440 | 35574 ft | 482 kts | 137° |
| 2026-05-06 06:14 | -18.98204 | 56.04908 | 35390 ft | 481 kts | 137° |
| 2026-05-06 06:14 | -19.00627 | 56.07328 | 35226 ft | 481 kts | 137° |
| 2026-05-06 06:14 | -19.03077 | 56.09777 | 35020 ft | 481 kts | 137° |
| 2026-05-06 06:14 | -19.05521 | 56.12221 | 34806 ft | 481 kts | 137° |
| 2026-05-06 06:15 | -19.07971 | 56.14672 | 34354 ft | 477 kts | 137° |
| 2026-05-06 06:15 | -19.10405 | 56.17108 | 33349 ft | 481 kts | 137° |
| 2026-05-06 06:15 | -19.12827 | 56.19532 | 32406 ft | 483 kts | 137° |
| 2026-05-06 06:15 | -19.15277 | 56.21986 | 31628 ft | 485 kts | 137° |
| 2026-05-06 06:16 | -19.17740 | 56.24455 | 30804 ft | 487 kts | 137° |
| 2026-05-06 06:16 | -19.20197 | 56.26917 | 30269 ft | 482 kts | 137° |
| 2026-05-06 06:16 | -19.22616 | 56.29345 | 29757 ft | 477 kts | 137° |
| 2026-05-06 06:16 | -19.25011 | 56.31747 | 29219 ft | 473 kts | 137° |
| 2026-05-06 06:17 | -19.27387 | 56.34133 | 28648 ft | 469 kts | 137° |
| 2026-05-06 06:17 | -19.29753 | 56.36508 | 28066 ft | 466 kts | 137° |
| 2026-05-06 06:17 | -19.32123 | 56.38890 | 27494 ft | 463 kts | 137° |
| 2026-05-06 06:17 | -19.34444 | 56.41222 | 26921 ft | 460 kts | 137° |
| 2026-05-06 06:18 | -19.36757 | 56.43547 | 26349 ft | 457 kts | 137° |
| 2026-05-06 06:18 | -19.39067 | 56.45871 | 25774 ft | 454 kts | 137° |
| 2026-05-06 06:18 | -19.41350 | 56.48168 | 25196 ft | 451 kts | 137° |
| 2026-05-06 06:18 | -19.43606 | 56.50439 | 24623 ft | 448 kts | 137° |
| 2026-05-06 06:19 | -19.45875 | 56.52724 | 24036 ft | 445 kts | 137° |
| 2026-05-06 06:19 | -19.48099 | 56.54964 | 23460 ft | 442 kts | 137° |
| 2026-05-06 06:19 | -19.50326 | 56.57210 | 22881 ft | 440 kts | 137° |
| 2026-05-06 06:19 | -19.52545 | 56.59447 | 22269 ft | 437 kts | 137° |
| 2026-05-06 06:20 | -19.54763 | 56.61684 | 21663 ft | 434 kts | 137° |
| 2026-05-06 06:20 | -19.56940 | 56.63880 | 21076 ft | 431 kts | 137° |
| 2026-05-06 06:20 | -19.59120 | 56.66081 | 20481 ft | 428 kts | 136° |
| 2026-05-06 06:20 | -19.61269 | 56.68251 | 19897 ft | 425 kts | 136° |
| 2026-05-06 06:21 | -19.63421 | 56.70425 | 19309 ft | 421 kts | 136° |
| 2026-05-06 06:21 | -19.65544 | 56.72570 | 18719 ft | 418 kts | 136° |
| 2026-05-06 06:21 | -19.67622 | 56.74671 | 18142 ft | 415 kts | 136° |
| 2026-05-06 06:21 | -19.69734 | 56.76807 | 17545 ft | 412 kts | 136° |
| 2026-05-06 06:22 | -19.71807 | 56.78905 | 16970 ft | 409 kts | 135° |
| 2026-05-06 06:22 | -19.73856 | 56.80978 | 16396 ft | 407 kts | 135° |
| 2026-05-06 06:22 | -19.75913 | 56.83061 | 15800 ft | 404 kts | 135° |
| 2026-05-06 06:22 | -19.77931 | 56.85105 | 15213 ft | 402 kts | 135° |
| 2026-05-06 06:23 | -19.79956 | 56.87157 | 14624 ft | 399 kts | 135° |
| 2026-05-06 06:23 | -19.81970 | 56.89198 | 14030 ft | 396 kts | 135° |
| 2026-05-06 06:23 | -19.83950 | 56.91206 | 13443 ft | 393 kts | 135° |
| 2026-05-06 06:23 | -19.85938 | 56.93222 | 12859 ft | 390 kts | 135° |
| 2026-05-06 06:24 | -19.87906 | 56.95220 | 12271 ft | 387 kts | 135° |
| 2026-05-06 06:24 | -19.89852 | 56.97195 | 11685 ft | 385 kts | 134° |
| 2026-05-06 06:24 | -19.91789 | 56.99163 | 11059 ft | 383 kts | 134° |
| 2026-05-06 06:24 | -19.93695 | 57.01098 | 10646 ft | 368 kts | 134° |
| 2026-05-06 06:25 | -19.95479 | 57.02909 | 10618 ft | 343 kts | 134° |
| 2026-05-06 06:25 | -19.97175 | 57.04632 | 10541 ft | 322 kts | 134° |
| 2026-05-06 06:25 | -20.00260 | 57.07771 | 10288 ft | 290 kts | 134° |
| 2026-05-06 06:26 | -20.01687 | 57.09223 | 10158 ft | 276 kts | 134° |
| 2026-05-06 06:26 | -20.03057 | 57.10617 | 10050 ft | 265 kts | 134° |
| 2026-05-06 06:26 | -20.04387 | 57.11974 | 9801 ft | 270 kts | 134° |
| 2026-05-06 06:26 | -20.05784 | 57.13398 | 9415 ft | 280 kts | 134° |
| 2026-05-06 06:27 | -20.07212 | 57.14852 | 9043 ft | 281 kts | 134° |
| 2026-05-06 06:27 | -20.08625 | 57.16291 | 8695 ft | 281 kts | 134° |
| 2026-05-06 06:27 | -20.10046 | 57.17739 | 8351 ft | 280 kts | 134° |
| 2026-05-06 06:27 | -20.11452 | 57.19172 | 8012 ft | 279 kts | 134° |
| 2026-05-06 06:28 | -20.12881 | 57.20629 | 7667 ft | 279 kts | 134° |
| 2026-05-06 06:28 | -20.14276 | 57.22052 | 7329 ft | 278 kts | 134° |
| 2026-05-06 06:28 | -20.15691 | 57.23495 | 6989 ft | 277 kts | 134° |
| 2026-05-06 06:28 | -20.17087 | 57.24920 | 6655 ft | 276 kts | 134° |
| 2026-05-06 06:29 | -20.18474 | 57.26335 | 6327 ft | 275 kts | 134° |
| 2026-05-06 06:29 | -20.19831 | 57.27778 | 5993 ft | 273 kts | 128° |
| 2026-05-06 06:29 | -20.20975 | 57.29381 | 5773 ft | 266 kts | 124° |
| 2026-05-06 06:29 | -20.22021 | 57.30959 | 5685 ft | 257 kts | 123° |
| 2026-05-06 06:30 | -20.23052 | 57.32519 | 5568 ft | 255 kts | 123° |
| 2026-05-06 06:30 | -20.24080 | 57.34068 | 5437 ft | 254 kts | 123° |
| 2026-05-06 06:30 | -20.25099 | 57.35602 | 5303 ft | 253 kts | 123° |
| 2026-05-06 06:30 | -20.26125 | 57.37145 | 5167 ft | 253 kts | 123° |
| 2026-05-06 06:31 | -20.27151 | 57.38689 | 5031 ft | 253 kts | 123° |
| 2026-05-06 06:31 | -20.28167 | 57.40211 | 4898 ft | 250 kts | 124° |
| 2026-05-06 06:31 | -20.29170 | 57.41684 | 4759 ft | 242 kts | 124° |
| 2026-05-06 06:31 | -20.30150 | 57.43123 | 4629 ft | 235 kts | 124° |
| 2026-05-06 06:32 | -20.31091 | 57.44508 | 4509 ft | 227 kts | 123° |
| 2026-05-06 06:32 | -20.32011 | 57.45863 | 4382 ft | 219 kts | 123° |
| 2026-05-06 06:32 | -20.32809 | 57.47185 | 4276 ft | 209 kts | 117° |
| 2026-05-06 06:32 | -20.33457 | 57.48553 | 4173 ft | 200 kts | 113° |
| 2026-05-06 06:33 | -20.34048 | 57.49860 | 4055 ft | 191 kts | 114° |
| 2026-05-06 06:33 | -20.34635 | 57.51086 | 3912 ft | 185 kts | 115° |
| 2026-05-06 06:33 | -20.35229 | 57.52305 | 3630 ft | 186 kts | 115° |
| 2026-05-06 06:33 | -20.35824 | 57.53522 | 3344 ft | 187 kts | 115° |
| 2026-05-06 06:34 | -20.36429 | 57.54765 | 3061 ft | 188 kts | 115° |
| 2026-05-06 06:34 | -20.37013 | 57.55966 | 2796 ft | 176 kts | 115° |
| 2026-05-06 06:34 | -20.37567 | 57.57108 | 2537 ft | 167 kts | 115° |
| 2026-05-06 06:34 | -20.38081 | 57.58167 | 2299 ft | 158 kts | 114° |
| 2026-05-06 06:35 | -20.38580 | 57.59197 | 2060 ft | 149 kts | 114° |
| 2026-05-06 06:35 | -20.39033 | 57.60129 | 1855 ft | 137 kts | 114° |
| 2026-05-06 06:35 | -20.39476 | 57.61047 | 1645 ft | 140 kts | 115° |
| 2026-05-06 06:35 | -20.39921 | 57.61965 | 1419 ft | 138 kts | 114° |
| 2026-05-06 06:36 | -20.40365 | 57.62887 | 1223 ft | 139 kts | 115° |
| 2026-05-06 06:36 | -20.40817 | 57.63798 | 1000 ft | 138 kts | 115° |
| 2026-05-06 06:36 | -20.41251 | 57.64722 | 775 ft | 138 kts | 116° |
| 2026-05-06 06:36 | -20.41698 | 57.65625 | 591 ft | 137 kts | 115° |
| 2026-05-06 06:37 | -20.42140 | 57.66548 | 405 ft | 138 kts | 116° |
| 2026-05-06 06:37 | -20.42594 | 57.67469 | 208 ft | 136 kts | 116° |
| 2026-05-06 06:37 | -20.42981 | 57.68269 | 176 ft | 97 kts | 115° |
| 2026-05-06 06:37 | -20.43211 | 57.68749 | 161 ft | 52 kts | 118° |
| 2026-05-06 06:38 | -20.43361 | 57.69061 | 145 ft | 42 kts | 117° |
| 2026-05-06 06:38 | -20.43467 | 57.69276 | 133 ft | 15 kts | 118° |
| 2026-05-06 06:38 | -20.43515 | 57.69363 | 127 ft | 10 kts | 139° |
| 2026-05-06 06:38 | -20.43562 | 57.69359 | 126 ft | 5 kts | 196° |
| 2026-05-06 06:39 | -20.43598 | 57.69345 | 127 ft | 5 kts | 203° |
| 2026-05-06 06:39 | -20.43636 | 57.69327 | 127 ft | 6 kts | 206° |
| 2026-05-06 06:39 | -20.43658 | 57.69291 | 128 ft | 5 kts | 268° |
| 2026-05-06 06:39 | -20.43644 | 57.69245 | 131 ft | 7 kts | 294° |
| 2026-05-06 06:40 | -20.43617 | 57.69187 | 135 ft | 9 kts | 296° |
| 2026-05-06 06:40 | -20.43581 | 57.69111 | 140 ft | 12 kts | 296° |
| 2026-05-06 06:40 | -20.43537 | 57.69018 | 146 ft | 15 kts | 297° |
| 2026-05-06 06:40 | -20.43485 | 57.68910 | 153 ft | 16 kts | 297° |
| 2026-05-06 06:41 | -20.43430 | 57.68796 | 159 ft | 17 kts | 297° |
| 2026-05-06 06:41 | -20.43370 | 57.68674 | 164 ft | 19 kts | 297° |
| 2026-05-06 06:41 | -20.43304 | 57.68539 | 169 ft | 20 kts | 297° |
| 2026-05-06 06:41 | -20.43256 | 57.68440 | 173 ft | 10 kts | 297° |
| 2026-05-06 06:42 | -20.43227 | 57.68379 | 175 ft | 7 kts | 296° |
| 2026-05-06 06:42 | -20.43206 | 57.68332 | 177 ft | 6 kts | 297° |
| 2026-05-06 06:42 | -20.43176 | 57.68272 | 179 ft | 11 kts | 297° |
| 2026-05-06 06:42 | -20.43144 | 57.68204 | 181 ft | 9 kts | 297° |
| 2026-05-06 06:43 | -20.43119 | 57.68145 | 183 ft | 8 kts | 271° |
| 2026-05-06 06:43 | -20.43160 | 57.68097 | 186 ft | 10 kts | 206° |
| 2026-05-06 06:43 | -20.43232 | 57.68069 | 187 ft | 12 kts | 181° |
| 2026-05-06 06:43 | -20.43327 | 57.68095 | 186 ft | 11 kts | 163° |
| 2026-05-06 06:44 | -20.43372 | 57.68086 | 186 ft | 7 kts | 239° |
| 2026-05-06 06:44 | -20.43384 | 57.68024 | 188 ft | 6 kts | 263° |
| 2026-05-06 06:44 | -20.43386 | 57.68010 | 188 ft | 0 kts | 262° |